sensor_id;sensor_type;location;lat;lon;timestamp;pressure;altitude;pressure_sealevel;temperature;humidity
30598;BME280;17365;48.878;8.334;2023-05-19T00:02:11;100594.66;;;11.61;60.73
30598;BME280;17365;48.878;8.334;2023-05-19T00:04:36;100580.72;;;11.50;61.04
30598;BME280;17365;48.878;8.334;2023-05-19T00:07:04;100584.13;;;11.40;61.46
30598;BME280;17365;48.878;8.334;2023-05-19T00:09:32;100585.94;;;11.50;61.43
30598;BME280;17365;48.878;8.334;2023-05-19T00:11:57;100573.63;;;11.20;62.94
30598;BME280;17365;48.878;8.334;2023-05-19T00:14:22;100573.78;;;11.46;61.54
30598;BME280;17365;48.878;8.334;2023-05-19T00:16:48;100575.41;;;11.30;62.58
30598;BME280;17365;48.878;8.334;2023-05-19T00:19:13;100578.78;;;11.13;63.41
30598;BME280;17365;48.878;8.334;2023-05-19T00:21:38;100576.09;;;11.00;64.26
30598;BME280;17365;48.878;8.334;2023-05-19T00:24:04;100583.09;;;11.11;63.71
30598;BME280;17365;48.878;8.334;2023-05-19T00:26:30;100582.00;;;10.87;65.16
30598;BME280;17365;48.878;8.334;2023-05-19T00:28:55;100582.25;;;11.16;62.89
30598;BME280;17365;48.878;8.334;2023-05-19T00:31:20;100590.06;;;11.21;63.22
30598;BME280;17365;48.878;8.334;2023-05-19T00:33:45;100580.66;;;11.36;62.35
30598;BME280;17365;48.878;8.334;2023-05-19T00:36:11;100585.72;;;11.18;63.29
30598;BME280;17365;48.878;8.334;2023-05-19T00:38:36;100580.59;;;11.29;62.78
30598;BME280;17365;48.878;8.334;2023-05-19T00:41:02;100580.47;;;11.09;64.00
30598;BME280;17365;48.878;8.334;2023-05-19T00:43:27;100579.72;;;11.24;63.20
30598;BME280;17365;48.878;8.334;2023-05-19T00:45:54;100576.19;;;11.14;63.94
30598;BME280;17365;48.878;8.334;2023-05-19T00:48:19;100580.59;;;11.26;63.24
30598;BME280;17365;48.878;8.334;2023-05-19T00:50:45;100580.50;;;11.11;64.19
30598;BME280;17365;48.878;8.334;2023-05-19T00:53:10;100577.84;;;11.06;64.34
30598;BME280;17365;48.878;8.334;2023-05-19T00:55:36;100583.03;;;11.01;65.06
30598;BME280;17365;48.878;8.334;2023-05-19T00:58:02;100582.25;;;11.13;64.53
30598;BME280;17365;48.878;8.334;2023-05-19T01:00:28;100585.59;;;11.00;65.34
30598;BME280;17365;48.878;8.334;2023-05-19T01:02:54;100581.31;;;11.06;64.78
30598;BME280;17365;48.878;8.334;2023-05-19T01:05:19;100580.31;;;10.88;65.61
30598;BME280;17365;48.878;8.334;2023-05-19T01:07:45;100580.47;;;11.09;64.48
30598;BME280;17365;48.878;8.334;2023-05-19T01:10:11;100581.13;;;10.81;65.87
30598;BME280;17365;48.878;8.334;2023-05-19T01:12:36;100574.38;;;11.02;64.75
30598;BME280;17365;48.878;8.334;2023-05-19T01:15:02;100569.03;;;10.84;65.92
30598;BME280;17365;48.878;8.334;2023-05-19T01:19:58;100571.63;;;10.83;66.12
30598;BME280;17365;48.878;8.334;2023-05-19T01:22:47;100575.81;;;10.67;67.54
30598;BME280;17365;48.878;8.334;2023-05-19T01:25:29;100570.66;;;10.73;67.29
30598;BME280;17365;48.878;8.334;2023-05-19T01:30:46;100572.41;;;10.75;67.15
30598;BME280;17365;48.878;8.334;2023-05-19T01:33:13;100567.09;;;10.62;68.05
30598;BME280;17365;48.878;8.334;2023-05-19T01:35:39;100570.53;;;10.55;68.22
30598;BME280;17365;48.878;8.334;2023-05-19T01:38:07;100566.19;;;10.55;68.62
30598;BME280;17365;48.878;8.334;2023-05-19T01:40:32;100571.44;;;10.61;67.88
30598;BME280;17365;48.878;8.334;2023-05-19T01:42:58;100564.31;;;10.40;69.10
30598;BME280;17365;48.878;8.334;2023-05-19T01:45:24;100557.97;;;10.15;69.97
30598;BME280;17365;48.878;8.334;2023-05-19T01:47:51;100563.28;;;10.23;69.94
30598;BME280;17365;48.878;8.334;2023-05-19T01:50:17;100555.53;;;10.28;69.84
30598;BME280;17365;48.878;8.334;2023-05-19T01:52:42;100554.84;;;10.44;69.42
30598;BME280;17365;48.878;8.334;2023-05-19T01:55:07;100565.13;;;10.32;69.81
30598;BME280;17365;48.878;8.334;2023-05-19T02:00:33;100561.78;;;10.46;69.01
30598;BME280;17365;48.878;8.334;2023-05-19T02:05:34;100572.97;;;10.41;69.36
30598;BME280;17365;48.878;8.334;2023-05-19T02:08:10;100573.44;;;10.08;70.66
30598;BME280;17365;48.878;8.334;2023-05-19T02:10:36;100575.25;;;10.15;71.15
30598;BME280;17365;48.878;8.334;2023-05-19T02:13:05;100580.44;;;10.13;71.42
30598;BME280;17365;48.878;8.334;2023-05-19T02:15:33;100583.97;;;10.20;70.72
30598;BME280;17365;48.878;8.334;2023-05-19T02:18:02;100581.16;;;10.02;71.57
30598;BME280;17365;48.878;8.334;2023-05-19T02:20:28;100583.31;;;9.65;73.34
30598;BME280;17365;48.878;8.334;2023-05-19T02:22:54;100581.84;;;9.85;72.96
30598;BME280;17365;48.878;8.334;2023-05-19T02:25:19;100585.19;;;9.77;73.16
30598;BME280;17365;48.878;8.334;2023-05-19T02:27:45;100589.53;;;9.81;73.43
30598;BME280;17365;48.878;8.334;2023-05-19T02:30:13;100582.75;;;9.89;72.54
30598;BME280;17365;48.878;8.334;2023-05-19T02:32:38;100581.06;;;9.96;72.32
30598;BME280;17365;48.878;8.334;2023-05-19T02:35:03;100581.78;;;9.81;73.73
30598;BME280;17365;48.878;8.334;2023-05-19T02:37:29;100575.94;;;9.97;72.69
30598;BME280;17365;48.878;8.334;2023-05-19T02:39:55;100577.31;;;9.69;73.95
30598;BME280;17365;48.878;8.334;2023-05-19T02:42:20;100580.28;;;10.00;72.47
30598;BME280;17365;48.878;8.334;2023-05-19T02:44:45;100571.66;;;10.02;72.26
30598;BME280;17365;48.878;8.334;2023-05-19T02:47:11;100576.47;;;9.73;73.85
30598;BME280;17365;48.878;8.334;2023-05-19T02:49:36;100572.94;;;9.65;74.39
30598;BME280;17365;48.878;8.334;2023-05-19T02:52:05;100580.09;;;9.19;76.57
30598;BME280;17365;48.878;8.334;2023-05-19T02:54:30;100566.69;;;9.51;75.43
30598;BME280;17365;48.878;8.334;2023-05-19T02:56:56;100568.53;;;9.58;75.03
30598;BME280;17365;48.878;8.334;2023-05-19T02:59:21;100569.66;;;9.78;74.03
30598;BME280;17365;48.878;8.334;2023-05-19T03:01:47;100571.09;;;9.56;75.01
30598;BME280;17365;48.878;8.334;2023-05-19T03:04:12;100561.34;;;9.39;75.78
30598;BME280;17365;48.878;8.334;2023-05-19T03:06:38;100565.94;;;9.59;75.19
30598;BME280;17365;48.878;8.334;2023-05-19T03:09:03;100571.72;;;9.39;76.30
30598;BME280;17365;48.878;8.334;2023-05-19T03:11:28;100566.75;;;9.54;75.48
30598;BME280;17365;48.878;8.334;2023-05-19T03:13:54;100570.25;;;9.59;75.10
30598;BME280;17365;48.878;8.334;2023-05-19T03:16:20;100566.50;;;9.36;76.69
30598;BME280;17365;48.878;8.334;2023-05-19T03:18:45;100563.63;;;9.17;77.10
30598;BME280;17365;48.878;8.334;2023-05-19T03:21:11;100561.31;;;9.36;76.84
30598;BME280;17365;48.878;8.334;2023-05-19T03:23:36;100557.69;;;9.23;76.85
30598;BME280;17365;48.878;8.334;2023-05-19T03:26:01;100566.31;;;9.23;77.73
30598;BME280;17365;48.878;8.334;2023-05-19T03:28:27;100570.81;;;9.35;77.04
30598;BME280;17365;48.878;8.334;2023-05-19T03:30:52;100570.50;;;9.14;77.92
30598;BME280;17365;48.878;8.334;2023-05-19T03:33:17;100568.91;;;9.22;77.46
30598;BME280;17365;48.878;8.334;2023-05-19T03:35:42;100565.50;;;9.26;77.12
30598;BME280;17365;48.878;8.334;2023-05-19T03:38:10;100562.91;;;9.26;77.97
30598;BME280;17365;48.878;8.334;2023-05-19T03:40:36;100574.91;;;9.19;77.81
30598;BME280;17365;48.878;8.334;2023-05-19T03:43:01;100572.41;;;9.28;77.47
30598;BME280;17365;48.878;8.334;2023-05-19T03:45:26;100577.50;;;9.21;77.76
30598;BME280;17365;48.878;8.334;2023-05-19T03:47:51;100581.09;;;9.29;77.37
30598;BME280;17365;48.878;8.334;2023-05-19T03:50:17;100568.16;;;9.29;77.41
30598;BME280;17365;48.878;8.334;2023-05-19T03:52:42;100577.19;;;9.01;78.45
30598;BME280;17365;48.878;8.334;2023-05-19T03:55:09;100575.06;;;9.31;78.01
30598;BME280;17365;48.878;8.334;2023-05-19T03:57:34;100581.44;;;9.53;76.29
30598;BME280;17365;48.878;8.334;2023-05-19T04:00:00;100585.66;;;9.48;76.63
30598;BME280;17365;48.878;8.334;2023-05-19T04:02:25;100580.56;;;9.53;76.51
30598;BME280;17365;48.878;8.334;2023-05-19T04:04:50;100593.19;;;9.31;77.65
30598;BME280;17365;48.878;8.334;2023-05-19T04:07:15;100586.47;;;9.44;77.17
30598;BME280;17365;48.878;8.334;2023-05-19T04:09:41;100586.06;;;9.77;75.78
30598;BME280;17365;48.878;8.334;2023-05-19T04:12:06;100588.53;;;9.70;76.05
30598;BME280;17365;48.878;8.334;2023-05-19T04:14:31;100587.41;;;9.49;77.56
30598;BME280;17365;48.878;8.334;2023-05-19T04:16:56;100581.97;;;9.29;77.73
30598;BME280;17365;48.878;8.334;2023-05-19T04:19:22;100589.63;;;9.23;78.25
30598;BME280;17365;48.878;8.334;2023-05-19T04:21:47;100590.69;;;9.38;77.93
30598;BME280;17365;48.878;8.334;2023-05-19T04:24:12;100589.28;;;9.61;77.25
30598;BME280;17365;48.878;8.334;2023-05-19T04:26:37;100589.34;;;9.66;77.22
30598;BME280;17365;48.878;8.334;2023-05-19T04:29:05;100586.34;;;9.37;78.12
30598;BME280;17365;48.878;8.334;2023-05-19T04:31:31;100585.63;;;9.47;78.27
30598;BME280;17365;48.878;8.334;2023-05-19T04:33:58;100589.19;;;9.53;77.04
30598;BME280;17365;48.878;8.334;2023-05-19T04:36:25;100588.66;;;9.77;76.70
30598;BME280;17365;48.878;8.334;2023-05-19T04:38:51;100593.00;;;9.81;76.53
30598;BME280;17365;48.878;8.334;2023-05-19T04:41:19;100596.66;;;9.97;75.66
30598;BME280;17365;48.878;8.334;2023-05-19T04:43:45;100603.09;;;9.61;77.27
30598;BME280;17365;48.878;8.334;2023-05-19T04:46:12;100591.94;;;9.66;77.54
30598;BME280;17365;48.878;8.334;2023-05-19T04:48:37;100597.34;;;9.84;76.66
30598;BME280;17365;48.878;8.334;2023-05-19T04:51:02;100602.44;;;9.76;76.70
30598;BME280;17365;48.878;8.334;2023-05-19T04:53:28;100606.34;;;9.47;77.90
30598;BME280;17365;48.878;8.334;2023-05-19T04:55:53;100598.34;;;9.95;76.73
30598;BME280;17365;48.878;8.334;2023-05-19T04:58:18;100605.09;;;9.82;76.95
30598;BME280;17365;48.878;8.334;2023-05-19T05:00:43;100606.84;;;9.85;77.21
30598;BME280;17365;48.878;8.334;2023-05-19T05:03:09;100608.91;;;10.09;76.47
30598;BME280;17365;48.878;8.334;2023-05-19T05:05:34;100608.84;;;10.06;76.33
30598;BME280;17365;48.878;8.334;2023-05-19T05:07:59;100615.44;;;9.79;77.70
30598;BME280;17365;48.878;8.334;2023-05-19T05:10:25;100605.69;;;10.30;76.13
30598;BME280;17365;48.878;8.334;2023-05-19T05:12:50;100602.47;;;10.52;74.54
30598;BME280;17365;48.878;8.334;2023-05-19T05:15:15;100601.56;;;10.45;74.44
30598;BME280;17365;48.878;8.334;2023-05-19T05:17:41;100607.63;;;10.47;74.79
30598;BME280;17365;48.878;8.334;2023-05-19T05:20:07;100612.06;;;10.61;74.83
30598;BME280;17365;48.878;8.334;2023-05-19T05:22:33;100604.56;;;10.93;73.03
30598;BME280;17365;48.878;8.334;2023-05-19T05:24:59;100608.34;;;10.34;73.97
30598;BME280;17365;48.878;8.334;2023-05-19T05:27:25;100604.38;;;10.71;73.76
30598;BME280;17365;48.878;8.334;2023-05-19T05:29:51;100613.13;;;10.79;73.27
30598;BME280;17365;48.878;8.334;2023-05-19T05:32:16;100608.59;;;10.60;73.24
30598;BME280;17365;48.878;8.334;2023-05-19T05:34:42;100613.56;;;10.39;74.43
30598;BME280;17365;48.878;8.334;2023-05-19T05:37:07;100608.72;;;10.74;73.78
30598;BME280;17365;48.878;8.334;2023-05-19T05:39:32;100606.34;;;10.12;75.70
30598;BME280;17365;48.878;8.334;2023-05-19T05:41:57;100607.59;;;10.44;75.37
30598;BME280;17365;48.878;8.334;2023-05-19T05:44:22;100600.03;;;10.69;74.33
30598;BME280;17365;48.878;8.334;2023-05-19T05:46:48;100604.59;;;10.96;73.49
30598;BME280;17365;48.878;8.334;2023-05-19T05:49:13;100614.34;;;11.24;71.69
30598;BME280;17365;48.878;8.334;2023-05-19T05:51:38;100608.19;;;11.12;72.62
30598;BME280;17365;48.878;8.334;2023-05-19T05:54:04;100598.69;;;11.17;71.91
30598;BME280;17365;48.878;8.334;2023-05-19T05:56:30;100600.56;;;11.36;71.65
30598;BME280;17365;48.878;8.334;2023-05-19T05:58:57;100594.66;;;11.63;70.13
30598;BME280;17365;48.878;8.334;2023-05-19T06:01:23;100599.03;;;11.69;69.32
30598;BME280;17365;48.878;8.334;2023-05-19T06:03:48;100590.31;;;11.60;70.00
30598;BME280;17365;48.878;8.334;2023-05-19T06:06:13;100592.88;;;11.54;70.00
30598;BME280;17365;48.878;8.334;2023-05-19T06:08:38;100591.84;;;11.28;69.95
30598;BME280;17365;48.878;8.334;2023-05-19T06:11:03;100595.50;;;11.57;69.68
30598;BME280;17365;48.878;8.334;2023-05-19T06:13:32;100598.97;;;11.59;69.90
30598;BME280;17365;48.878;8.334;2023-05-19T06:15:58;100589.63;;;11.92;68.23
30598;BME280;17365;48.878;8.334;2023-05-19T06:18:23;100591.41;;;12.11;67.70
30598;BME280;17365;48.878;8.334;2023-05-19T06:20:48;100592.34;;;12.32;66.19
30598;BME280;17365;48.878;8.334;2023-05-19T06:23:13;100594.00;;;12.02;67.58
30598;BME280;17365;48.878;8.334;2023-05-19T06:25:38;100592.28;;;12.01;67.01
30598;BME280;17365;48.878;8.334;2023-05-19T06:28:04;100590.59;;;12.34;66.61
30598;BME280;17365;48.878;8.334;2023-05-19T06:30:29;100588.72;;;11.88;66.56
30598;BME280;17365;48.878;8.334;2023-05-19T06:32:55;100595.81;;;12.24;66.88
30598;BME280;17365;48.878;8.334;2023-05-19T06:35:20;100589.78;;;12.53;65.70
30598;BME280;17365;48.878;8.334;2023-05-19T06:37:45;100594.84;;;11.92;66.78
30598;BME280;17365;48.878;8.334;2023-05-19T06:40:11;100600.22;;;12.64;65.37
30598;BME280;17365;48.878;8.334;2023-05-19T06:42:36;100604.56;;;12.88;64.14
30598;BME280;17365;48.878;8.334;2023-05-19T06:45:01;100595.91;;;12.93;63.88
30598;BME280;17365;48.878;8.334;2023-05-19T06:47:27;100595.03;;;12.80;64.15
30598;BME280;17365;48.878;8.334;2023-05-19T06:49:52;100599.34;;;13.10;63.81
30598;BME280;17365;48.878;8.334;2023-05-19T06:52:21;100608.91;;;13.07;63.36
30598;BME280;17365;48.878;8.334;2023-05-19T06:54:47;100596.75;;;12.66;64.61
30598;BME280;17365;48.878;8.334;2023-05-19T06:57:13;100596.75;;;13.13;64.03
30598;BME280;17365;48.878;8.334;2023-05-19T06:59:38;100588.97;;;12.85;63.43
30598;BME280;17365;48.878;8.334;2023-05-19T07:02:08;100587.22;;;12.97;64.05
30598;BME280;17365;48.878;8.334;2023-05-19T07:04:33;100591.53;;;13.12;62.79
30598;BME280;17365;48.878;8.334;2023-05-19T07:06:58;100588.94;;;13.23;62.09
30598;BME280;17365;48.878;8.334;2023-05-19T07:09:23;100592.44;;;13.20;61.95
30598;BME280;17365;48.878;8.334;2023-05-19T07:11:49;100588.06;;;12.90;62.45
30598;BME280;17365;48.878;8.334;2023-05-19T07:14:14;100585.44;;;13.50;62.28
30598;BME280;17365;48.878;8.334;2023-05-19T07:16:39;100582.78;;;13.57;61.80
30598;BME280;17365;48.878;8.334;2023-05-19T07:19:04;100580.19;;;13.65;61.43
30598;BME280;17365;48.878;8.334;2023-05-19T07:21:30;100574.06;;;13.77;61.16
30598;BME280;17365;48.878;8.334;2023-05-19T07:23:55;100570.50;;;13.90;61.03
30598;BME280;17365;48.878;8.334;2023-05-19T07:26:20;100570.41;;;14.10;60.10
30598;BME280;17365;48.878;8.334;2023-05-19T07:28:46;100567.00;;;13.98;59.76
30598;BME280;17365;48.878;8.334;2023-05-19T07:31:11;100563.66;;;13.67;61.44
30598;BME280;17365;48.878;8.334;2023-05-19T07:33:37;100567.09;;;13.76;61.00
30598;BME280;17365;48.878;8.334;2023-05-19T07:36:02;100562.69;;;13.91;60.48
30598;BME280;17365;48.878;8.334;2023-05-19T07:38:28;100557.22;;;14.39;58.83
30598;BME280;17365;48.878;8.334;2023-05-19T07:40:54;100555.38;;;14.54;59.38
30598;BME280;17365;48.878;8.334;2023-05-19T07:43:19;100557.19;;;14.46;58.94
30598;BME280;17365;48.878;8.334;2023-05-19T07:45:44;100553.75;;;14.35;59.25
30598;BME280;17365;48.878;8.334;2023-05-19T07:48:09;100553.00;;;14.13;60.42
30598;BME280;17365;48.878;8.334;2023-05-19T07:50:35;100561.88;;;13.77;60.98
30598;BME280;17365;48.878;8.334;2023-05-19T07:53:01;100556.53;;;14.06;60.40
30598;BME280;17365;48.878;8.334;2023-05-19T07:55:26;100551.94;;;14.43;59.97
30598;BME280;17365;48.878;8.334;2023-05-19T07:57:51;100549.09;;;14.78;59.41
30598;BME280;17365;48.878;8.334;2023-05-19T08:00:16;100545.03;;;14.39;59.81
30598;BME280;17365;48.878;8.334;2023-05-19T08:02:42;100546.59;;;14.66;59.14
30598;BME280;17365;48.878;8.334;2023-05-19T08:05:08;100538.44;;;15.03;58.36
30598;BME280;17365;48.878;8.334;2023-05-19T08:07:33;100546.53;;;14.74;58.15
30598;BME280;17365;48.878;8.334;2023-05-19T08:09:58;100536.94;;;14.77;58.25
30598;BME280;17365;48.878;8.334;2023-05-19T08:12:23;100549.03;;;14.88;58.46
30598;BME280;17365;48.878;8.334;2023-05-19T08:14:49;100524.63;;;14.89;57.55
30598;BME280;17365;48.878;8.334;2023-05-19T08:17:14;100523.44;;;15.22;57.89
30598;BME280;17365;48.878;8.334;2023-05-19T08:19:39;100523.34;;;15.28;57.35
30598;BME280;17365;48.878;8.334;2023-05-19T08:22:04;100524.22;;;15.30;57.38
30598;BME280;17365;48.878;8.334;2023-05-19T08:24:29;100526.00;;;15.25;56.70
30598;BME280;17365;48.878;8.334;2023-05-19T08:26:56;100525.56;;;14.84;56.87
30598;BME280;17365;48.878;8.334;2023-05-19T08:29:22;100523.50;;;15.15;56.83
30598;BME280;17365;48.878;8.334;2023-05-19T08:31:47;100516.75;;;14.93;57.01
30598;BME280;17365;48.878;8.334;2023-05-19T08:34:12;100512.25;;;15.09;57.22
30598;BME280;17365;48.878;8.334;2023-05-19T08:36:37;100510.09;;;14.59;58.22
30598;BME280;17365;48.878;8.334;2023-05-19T08:39:03;100511.38;;;15.08;57.37
30598;BME280;17365;48.878;8.334;2023-05-19T08:41:30;100511.31;;;15.18;57.50
30598;BME280;17365;48.878;8.334;2023-05-19T08:43:55;100511.25;;;15.21;57.08
30598;BME280;17365;48.878;8.334;2023-05-19T08:46:20;100507.00;;;15.10;57.58
30598;BME280;17365;48.878;8.334;2023-05-19T08:48:48;100508.56;;;15.27;57.04
30598;BME280;17365;48.878;8.334;2023-05-19T08:53:49;100512.16;;;15.18;57.18
30598;BME280;17365;48.878;8.334;2023-05-19T08:56:19;100507.81;;;15.19;57.31
30598;BME280;17365;48.878;8.334;2023-05-19T08:58:45;100506.44;;;15.61;55.63
30598;BME280;17365;48.878;8.334;2023-05-19T09:01:13;100508.66;;;15.93;54.83
30598;BME280;17365;48.878;8.334;2023-05-19T09:03:40;100497.81;;;16.17;54.68
30598;BME280;17365;48.878;8.334;2023-05-19T09:06:07;100492.56;;;16.20;53.88
30598;BME280;17365;48.878;8.334;2023-05-19T09:08:33;100489.25;;;16.09;53.87
30598;BME280;17365;48.878;8.334;2023-05-19T09:10:58;100484.53;;;16.33;53.77
30598;BME280;17365;48.878;8.334;2023-05-19T09:13:24;100489.34;;;16.01;53.70
30598;BME280;17365;48.878;8.334;2023-05-19T09:15:50;100484.75;;;16.17;53.69
30598;BME280;17365;48.878;8.334;2023-05-19T09:18:16;100483.09;;;16.12;54.34
30598;BME280;17365;48.878;8.334;2023-05-19T09:20:43;100483.09;;;16.12;53.20
30598;BME280;17365;48.878;8.334;2023-05-19T09:23:12;100483.97;;;16.12;54.19
30598;BME280;17365;48.878;8.334;2023-05-19T09:25:45;100477.19;;;16.53;52.86
30598;BME280;17365;48.878;8.334;2023-05-19T09:28:10;100483.97;;;16.66;52.24
30598;BME280;17365;48.878;8.334;2023-05-19T09:30:36;100486.16;;;16.38;52.47
30598;BME280;17365;48.878;8.334;2023-05-19T09:33:01;100483.88;;;16.72;52.14
30598;BME280;17365;48.878;8.334;2023-05-19T09:35:28;100486.59;;;16.68;51.35
30598;BME280;17365;48.878;8.334;2023-05-19T09:37:53;100482.25;;;16.64;51.47
30598;BME280;17365;48.878;8.334;2023-05-19T09:40:18;100484.22;;;16.49;51.50
30598;BME280;17365;48.878;8.334;2023-05-19T09:42:44;100479.03;;;16.48;51.70
30598;BME280;17365;48.878;8.334;2023-05-19T09:45:09;100484.66;;;16.23;51.21
30598;BME280;17365;48.878;8.334;2023-05-19T09:47:34;100474.31;;;16.70;50.67
30598;BME280;17365;48.878;8.334;2023-05-19T09:50:03;100473.91;;;16.93;50.23
30598;BME280;17365;48.878;8.334;2023-05-19T09:52:28;100472.84;;;16.52;50.91
30598;BME280;17365;48.878;8.334;2023-05-19T09:54:55;100471.03;;;16.57;50.68
30598;BME280;17365;48.878;8.334;2023-05-19T09:57:24;100466.88;;;16.95;50.45
30598;BME280;17365;48.878;8.334;2023-05-19T09:59:49;100468.19;;;17.17;50.01
30598;BME280;17365;48.878;8.334;2023-05-19T10:02:15;100473.88;;;17.39;49.14
30598;BME280;17365;48.878;8.334;2023-05-19T10:04:41;100469.38;;;17.02;49.31
30598;BME280;17365;48.878;8.334;2023-05-19T10:07:07;100471.91;;;17.05;48.79
30598;BME280;17365;48.878;8.334;2023-05-19T10:09:33;100461.13;;;17.22;48.68
30598;BME280;17365;48.878;8.334;2023-05-19T10:12:00;100460.00;;;17.34;48.63
30598;BME280;17365;48.878;8.334;2023-05-19T10:14:27;100460.25;;;17.20;48.78
30598;BME280;17365;48.878;8.334;2023-05-19T10:16:52;100471.63;;;17.22;47.94
30598;BME280;17365;48.878;8.334;2023-05-19T10:19:21;100452.31;;;17.25;47.78
30598;BME280;17365;48.878;8.334;2023-05-19T10:21:47;100453.19;;;17.65;46.89
30598;BME280;17365;48.878;8.334;2023-05-19T10:24:12;100451.97;;;17.83;46.86
30598;BME280;17365;48.878;8.334;2023-05-19T10:26:41;100451.59;;;17.60;46.62
30598;BME280;17365;48.878;8.334;2023-05-19T10:29:07;100447.63;;;17.82;46.48
30598;BME280;17365;48.878;8.334;2023-05-19T10:31:34;100444.16;;;18.19;46.39
30598;BME280;17365;48.878;8.334;2023-05-19T10:36:49;100448.41;;;18.23;45.94
30598;BME280;17365;48.878;8.334;2023-05-19T10:39:21;100442.50;;;18.15;46.38
30598;BME280;17365;48.878;8.334;2023-05-19T10:41:52;100450.25;;;18.19;45.86
30598;BME280;17365;48.878;8.334;2023-05-19T10:47:05;100455.66;;;17.33;47.58
30598;BME280;17365;48.878;8.334;2023-05-19T10:49:33;100452.97;;;17.78;46.12
30598;BME280;17365;48.878;8.334;2023-05-19T10:51:58;100450.00;;;17.93;45.70
30598;BME280;17365;48.878;8.334;2023-05-19T10:57:19;100459.00;;;17.39;46.28
30598;BME280;17365;48.878;8.334;2023-05-19T10:59:48;100448.91;;;18.03;45.79
30598;BME280;17365;48.878;8.334;2023-05-19T11:05:05;100440.53;;;17.86;45.07
30598;BME280;17365;48.878;8.334;2023-05-19T11:07:31;100459.53;;;17.57;45.65
30598;BME280;17365;48.878;8.334;2023-05-19T11:09:56;100453.31;;;17.61;45.29
30598;BME280;17365;48.878;8.334;2023-05-19T11:12:22;100441.28;;;17.51;45.28
30598;BME280;17365;48.878;8.334;2023-05-19T11:14:51;100443.44;;;17.73;44.95
30598;BME280;17365;48.878;8.334;2023-05-19T11:17:17;100450.28;;;18.18;44.14
30598;BME280;17365;48.878;8.334;2023-05-19T11:20:01;100455.34;;;17.90;44.59
30598;BME280;17365;48.878;8.334;2023-05-19T11:22:26;100457.13;;;17.88;43.91
30598;BME280;17365;48.878;8.334;2023-05-19T11:24:54;100453.00;;;17.34;45.29
30598;BME280;17365;48.878;8.334;2023-05-19T11:29:48;100440.06;;;17.67;45.24
30598;BME280;17365;48.878;8.334;2023-05-19T11:32:14;100448.34;;;17.90;44.64
30598;BME280;17365;48.878;8.334;2023-05-19T11:34:39;100438.50;;;17.98;44.62
30598;BME280;17365;48.878;8.334;2023-05-19T11:37:06;100436.47;;;18.47;44.53
30598;BME280;17365;48.878;8.334;2023-05-19T11:39:32;100440.34;;;18.66;44.17
30598;BME280;17365;48.878;8.334;2023-05-19T11:41:57;100450.50;;;18.44;43.66
30598;BME280;17365;48.878;8.334;2023-05-19T11:44:22;100436.03;;;18.28;43.89
30598;BME280;17365;48.878;8.334;2023-05-19T11:46:48;100438.56;;;17.95;44.56
30598;BME280;17365;48.878;8.334;2023-05-19T11:49:13;100449.09;;;18.31;45.23
30598;BME280;17365;48.878;8.334;2023-05-19T11:51:42;100437.03;;;18.22;45.12
30598;BME280;17365;48.878;8.334;2023-05-19T11:54:07;100455.66;;;17.74;45.34
30598;BME280;17365;48.878;8.334;2023-05-19T11:56:36;100455.13;;;17.59;46.33
30598;BME280;17365;48.878;8.334;2023-05-19T11:59:03;100458.88;;;17.87;45.47
30598;BME280;17365;48.878;8.334;2023-05-19T12:01:28;100454.84;;;17.72;45.60
30598;BME280;17365;48.878;8.334;2023-05-19T12:03:56;100448.19;;;17.56;45.63
30598;BME280;17365;48.878;8.334;2023-05-19T12:06:21;100456.47;;;17.78;45.44
30598;BME280;17365;48.878;8.334;2023-05-19T12:08:47;100454.81;;;17.31;46.72
30598;BME280;17365;48.878;8.334;2023-05-19T12:11:14;100450.16;;;17.45;46.45
30598;BME280;17365;48.878;8.334;2023-05-19T12:13:39;100453.94;;;17.30;47.00
30598;BME280;17365;48.878;8.334;2023-05-19T12:16:05;100455.66;;;17.74;46.76
30598;BME280;17365;48.878;8.334;2023-05-19T12:18:35;100458.69;;;17.55;46.82
30598;BME280;17365;48.878;8.334;2023-05-19T12:21:00;100461.47;;;17.47;46.63
30598;BME280;17365;48.878;8.334;2023-05-19T12:23:25;100456.72;;;17.24;47.28
30598;BME280;17365;48.878;8.334;2023-05-19T12:25:51;100468.91;;;17.25;47.76
30598;BME280;17365;48.878;8.334;2023-05-19T12:28:17;100479.66;;;17.55;46.53
30598;BME280;17365;48.878;8.334;2023-05-19T12:30:46;100466.16;;;17.33;46.81
30598;BME280;17365;48.878;8.334;2023-05-19T12:33:11;100466.56;;;17.10;47.43
30598;BME280;17365;48.878;8.334;2023-05-19T12:35:38;100464.81;;;17.12;47.73
30598;BME280;17365;48.878;8.334;2023-05-19T12:38:04;100462.47;;;17.41;47.22
30598;BME280;17365;48.878;8.334;2023-05-19T12:40:30;100461.25;;;17.14;47.53
30598;BME280;17365;48.878;8.334;2023-05-19T12:42:55;100461.41;;;17.07;48.11
30598;BME280;17365;48.878;8.334;2023-05-19T12:45:22;100460.53;;;17.06;47.94
30598;BME280;17365;48.878;8.334;2023-05-19T12:47:50;100461.88;;;17.27;47.80
30598;BME280;17365;48.878;8.334;2023-05-19T12:50:15;100462.38;;;17.03;47.98
30598;BME280;17365;48.878;8.334;2023-05-19T12:55:06;100465.44;;;16.78;48.32
30598;BME280;17365;48.878;8.334;2023-05-19T12:57:35;100453.19;;;17.25;47.37
30598;BME280;17365;48.878;8.334;2023-05-19T13:00:01;100456.91;;;17.57;47.12
30598;BME280;17365;48.878;8.334;2023-05-19T13:02:27;100458.22;;;17.78;46.42
30598;BME280;17365;48.878;8.334;2023-05-19T13:04:53;100445.22;;;18.10;46.31
30598;BME280;17365;48.878;8.334;2023-05-19T13:07:19;100449.72;;;18.05;45.99
30598;BME280;17365;48.878;8.334;2023-05-19T13:09:44;100441.13;;;18.34;46.17
30598;BME280;17365;48.878;8.334;2023-05-19T13:12:09;100451.81;;;17.91;46.77
30598;BME280;17365;48.878;8.334;2023-05-19T13:14:34;100447.03;;;18.08;46.22
30598;BME280;17365;48.878;8.334;2023-05-19T13:16:59;100440.16;;;17.21;47.56